Time;durP1;ratioP1;P1;durP2;ratioP2;P2;SDS_P1;SDS_P2;PMS_P1;PMS_P2;Temp;Humidity;BMP_temperature;BMP_pressure;BME280_temperature;BME280_humidity;BME280_pressure;Samples;Min_cycle;Max_cycle;Signal;HPM_P1;HPM_P2
2024/01/13 00:00:09;;;;;;;7.27;6.47;;;22.50;52.60;;;;;;5096014;28;20790;-87
2024/01/13 00:02:37;;;;;;;8.17;5.77;;;22.50;52.50;;;;;;5093563;28;20450;-85
2024/01/13 00:05:05;;;;;;;7.37;6.50;;;22.60;52.60;;;;;;5093700;28;20533;-85
2024/01/13 00:07:31;;;;;;;8.80;7.13;;;22.50;52.50;;;;;;5094196;28;20943;-92
2024/01/13 00:09:58;;;;;;;7.53;6.37;;;22.50;52.50;;;;;;5103630;28;20470;-85
2024/01/13 00:12:25;;;;;;;8.80;7.10;;;22.50;52.50;;;;;;5111331;28;20483;-85
2024/01/13 00:14:52;;;;;;;9.13;6.37;;;22.50;52.50;;;;;;5095659;28;20528;-88
2024/01/13 00:17:19;;;;;;;6.73;6.03;;;22.50;52.60;;;;;;5073619;28;20492;-85
2024/01/13 00:19:47;;;;;;;8.03;6.53;;;22.40;52.50;;;;;;5073202;28;20482;-85
2024/01/13 00:22:13;;;;;;;8.97;6.90;;;22.40;52.50;;;;;;5073575;28;20436;-85
2024/01/13 00:24:40;;;;;;;7.33;6.60;;;22.40;52.60;;;;;;5073359;28;20476;-85
2024/01/13 00:27:07;;;;;;;6.50;5.80;;;22.50;52.60;;;;;;5073464;28;20432;-86
2024/01/13 00:29:34;;;;;;;8.50;6.33;;;22.40;52.60;;;;;;5074238;28;20447;-84
2024/01/13 00:32:01;;;;;;;8.17;6.33;;;22.40;52.50;;;;;;5073288;28;20484;-85
2024/01/13 00:34:27;;;;;;;7.77;6.40;;;22.40;52.50;;;;;;5073500;28;20451;-85
2024/01/13 00:36:55;;;;;;;6.87;6.17;;;22.40;52.60;;;;;;5073343;28;20949;-87
2024/01/13 00:39:22;;;;;;;7.30;6.57;;;22.40;52.60;;;;;;5074113;28;20915;-85
2024/01/13 00:41:49;;;;;;;8.13;5.97;;;22.40;52.60;;;;;;5077366;28;20447;-85
2024/01/13 00:44:16;;;;;;;6.67;5.77;;;22.40;52.50;;;;;;5077116;28;20454;-85
2024/01/13 00:46:43;;;;;;;7.33;6.47;;;22.40;52.50;;;;;;5077611;28;20440;-85
2024/01/13 00:49:09;;;;;;;7.47;6.77;;;22.50;52.50;;;;;;5077386;28;20472;-85
2024/01/13 00:51:37;;;;;;;7.27;6.57;;;22.40;52.50;;;;;;5077201;28;20487;-85
2024/01/13 00:54:06;;;;;;;7.10;6.40;;;22.40;52.50;;;;;;5077783;28;20765;-85
2024/01/13 00:56:33;;;;;;;7.00;6.30;;;22.50;52.50;;;;;;5077647;28;20481;-84
2024/01/13 00:59:00;;;;;;;6.60;5.90;;;22.40;52.40;;;;;;5077402;28;20455;-84
2024/01/13 01:01:27;;;;;;;6.93;6.23;;;22.40;52.40;;;;;;5076923;28;20446;-85
2024/01/13 01:03:54;;;;;;;8.03;6.03;;;22.40;52.40;;;;;;5076789;28;20440;-90
2024/01/13 01:06:20;;;;;;;6.83;6.20;;;22.50;52.50;;;;;;5076999;28;20527;-85
2024/01/13 01:08:47;;;;;;;7.63;6.83;;;22.50;52.40;;;;;;5077161;28;20444;-85
2024/01/13 01:11:16;;;;;;;7.93;6.77;;;22.40;52.30;;;;;;5076583;28;20488;-85
2024/01/13 01:13:42;;;;;;;7.43;6.73;;;22.50;52.40;;;;;;5077051;28;20482;-84
2024/01/13 01:16:09;;;;;;;6.97;6.27;;;22.50;52.40;;;;;;5076993;28;20441;-86
2024/01/13 01:18:37;;;;;;;6.80;6.10;;;22.40;52.40;;;;;;5076661;28;20472;-85
2024/01/13 01:21:04;;;;;;;6.70;5.70;;;22.40;52.30;;;;;;5076690;28;20444;-85
2024/01/13 01:23:31;;;;;;;6.47;5.77;;;22.40;52.30;;;;;;5076455;28;20945;-84
2024/01/13 01:25:57;;;;;;;7.40;6.00;;;22.40;52.40;;;;;;5076411;28;20440;-84
2024/01/13 01:28:26;;;;;;;6.90;6.20;;;22.40;52.40;;;;;;5076446;28;20441;-86
2024/01/13 01:30:52;;;;;;;7.53;6.00;;;22.50;52.40;;;;;;5077245;28;20494;-86
2024/01/13 01:33:19;;;;;;;6.93;6.23;;;22.50;52.30;;;;;;5077437;28;20447;-87
2024/01/13 01:35:46;;;;;;;6.53;5.90;;;22.50;52.90;;;;;;5077059;28;20443;-86
2024/01/13 01:38:13;;;;;;;7.13;6.43;;;22.40;52.40;;;;;;5076114;28;20454;-84
2024/01/13 01:40:41;;;;;;;6.90;6.20;;;22.40;52.30;;;;;;5076284;28;20448;-85
2024/01/13 01:43:08;;;;;;;6.20;5.60;;;22.40;52.40;;;;;;5077118;28;20441;-85
2024/01/13 01:45:36;;;;;;;5.80;5.30;;;22.40;52.30;;;;;;5076413;28;20443;-85
2024/01/13 01:48:05;;;;;;;6.60;6.00;;;22.50;52.30;;;;;;5076243;28;20809;-85
2024/01/13 01:50:32;;;;;;;7.07;6.10;;;22.50;52.30;;;;;;5076157;28;20476;-85
2024/01/13 01:52:59;;;;;;;7.57;5.73;;;22.50;52.30;;;;;;5076810;28;20533;-85
2024/01/13 01:55:26;;;;;;;6.93;6.17;;;22.40;52.20;;;;;;5077235;28;20437;-86
2024/01/13 01:57:54;;;;;;;6.50;5.90;;;22.40;52.30;;;;;;5076210;28;20436;-85
2024/01/13 02:00:21;;;;;;;5.93;5.33;;;22.50;52.20;;;;;;5076192;28;20436;-85
2024/01/13 02:02:49;;;;;;;6.47;5.80;;;22.40;52.20;;;;;;5076335;28;20446;-85
2024/01/13 02:05:17;;;;;;;6.33;5.73;;;22.50;52.20;;;;;;5075766;28;20957;-85
2024/01/13 02:07:44;;;;;;;6.73;6.00;;;22.40;52.20;;;;;;5076179;28;20447;-86
2024/01/13 02:10:10;;;;;;;5.80;5.20;;;22.50;52.30;;;;;;5076047;28;20443;-86
2024/01/13 02:12:37;;;;;;;6.50;5.90;;;22.50;52.20;;;;;;5076026;28;20444;-85
2024/01/13 02:15:05;;;;;;;6.60;5.90;;;22.40;52.80;;;;;;5076035;28;20464;-86
2024/01/13 02:17:32;;;;;;;6.83;5.93;;;22.40;52.20;;;;;;5076721;28;20516;-84
2024/01/13 02:20:05;;;;;;;7.07;6.20;;;22.40;52.10;;;;;;5076148;28;21012;-85
2024/01/13 02:22:33;;;;;;;6.23;5.63;;;22.40;52.10;;;;;;5076537;28;20440;-84
2024/01/13 02:25:08;;;;;;;6.73;5.50;;;22.40;52.10;;;;;;5078280;28;20531;-86
2024/01/13 02:27:35;;;;;;;6.97;5.80;;;22.40;52.10;;;;;;5076519;28;20438;-86
2024/01/13 02:30:02;;;;;;;6.70;6.10;;;22.50;52.20;;;;;;5076071;28;20448;-86
2024/01/13 02:32:28;;;;;;;7.17;6.57;;;22.40;52.00;;;;;;5075394;28;20484;-86
2024/01/13 02:34:55;;;;;;;7.73;6.40;;;22.50;52.20;;;;;;5075804;28;20547;-85
2024/01/13 02:37:22;;;;;;;6.43;5.70;;;22.40;52.10;;;;;;5075454;28;20444;-86
2024/01/13 02:39:50;;;;;;;6.00;5.40;;;22.40;52.10;;;;;;5075162;28;20440;-87
2024/01/13 02:42:17;;;;;;;7.07;5.90;;;22.40;52.10;;;;;;5075126;28;20450;-86
2024/01/13 02:44:44;;;;;;;5.97;5.37;;;22.40;52.10;;;;;;5075595;28;20437;-86
2024/01/13 02:47:11;;;;;;;5.83;5.23;;;22.50;52.10;;;;;;5075605;28;20436;-86
2024/01/13 02:49:37;;;;;;;6.00;5.40;;;22.40;52.10;;;;;;5075468;28;20460;-86
2024/01/13 02:52:05;;;;;;;5.40;4.90;;;22.50;52.10;;;;;;5075693;28;20484;-87
2024/01/13 02:54:31;;;;;;;5.60;4.87;;;22.50;52.10;;;;;;5075335;28;20436;-93
2024/01/13 02:57:00;;;;;;;5.80;5.30;;;22.40;52.00;;;;;;5075378;28;20512;-85
2024/01/13 02:59:27;;;;;;;7.10;5.20;;;22.50;52.10;;;;;;5075274;28;20444;-86
2024/01/13 03:01:53;;;;;;;5.87;4.73;;;22.50;52.10;;;;;;5074799;28;20436;-86
2024/01/13 03:04:20;;;;;;;5.70;4.93;;;22.40;52.00;;;;;;5075092;28;20535;-85
2024/01/13 03:06:47;;;;;;;6.10;4.97;;;22.40;52.00;;;;;;5075300;28;20805;-86
2024/01/13 03:09:15;;;;;;;6.00;5.50;;;22.40;52.00;;;;;;5074883;28;20471;-85
2024/01/13 03:11:42;;;;;;;5.50;5.00;;;22.40;52.10;;;;;;5074793;28;20476;-85
2024/01/13 03:14:10;;;;;;;5.27;4.73;;;22.40;52.00;;;;;;5075595;28;20440;-85
2024/01/13 03:16:37;;;;;;;6.20;5.00;;;22.40;52.10;;;;;;5082285;28;20432;-85
2024/01/13 03:19:04;;;;;;;6.20;5.60;;;22.40;52.20;;;;;;5096351;28;20456;-85
2024/01/13 03:21:31;;;;;;;6.03;5.50;;;22.40;52.10;;;;;;5094261;28;21013;-85
2024/01/13 03:23:58;;;;;;;4.67;4.20;;;22.40;52.10;;;;;;5074844;28;20438;-85
2024/01/13 03:26:24;;;;;;;6.17;5.40;;;22.40;52.10;;;;;;5074535;28;20442;-86
2024/01/13 03:28:51;;;;;;;5.63;5.13;;;22.40;52.00;;;;;;5074517;28;20443;-85
2024/01/13 03:31:19;;;;;;;5.23;4.73;;;22.40;52.00;;;;;;5074059;28;20570;-85
2024/01/13 03:33:46;;;;;;;5.60;5.00;;;22.40;52.00;;;;;;5074178;28;20451;-85
2024/01/13 03:36:13;;;;;;;6.20;5.60;;;22.40;52.00;;;;;;5074896;28;20436;-86
2024/01/13 03:38:41;;;;;;;4.90;4.50;;;22.40;52.00;;;;;;5074749;28;20565;-86
2024/01/13 03:41:08;;;;;;;6.23;5.00;;;22.40;51.90;;;;;;5075233;28;20441;-86
2024/01/13 03:43:35;;;;;;;5.93;5.37;;;22.40;51.90;;;;;;5075318;28;20446;-86
2024/01/13 03:46:03;;;;;;;5.00;4.37;;;22.40;52.00;;;;;;5074493;28;20448;-85
2024/01/13 03:48:31;;;;;;;5.13;4.63;;;22.50;52.00;;;;;;5074152;28;20544;-85
2024/01/13 03:50:57;;;;;;;4.73;4.30;;;22.40;52.00;;;;;;5074335;28;20429;-85
2024/01/13 03:53:25;;;;;;;5.27;4.43;;;22.40;52.00;;;;;;5074584;28;20543;-85
2024/01/13 03:55:52;;;;;;;4.87;4.47;;;22.50;52.10;;;;;;5073892;28;20440;-96
2024/01/13 03:58:18;;;;;;;4.77;4.37;;;22.40;52.00;;;;;;5073433;28;20942;-85
2024/01/13 04:00:45;;;;;;;4.80;4.33;;;22.40;52.50;;;;;;5073910;28;20440;-85
2024/01/13 04:03:13;;;;;;;5.23;4.73;;;22.40;52.00;;;;;;5073984;28;20860;-85
2024/01/13 04:05:41;;;;;;;4.47;4.07;;;22.40;52.00;;;;;;5074021;28;20433;-85
2024/01/13 04:08:08;;;;;;;5.83;4.93;;;22.40;51.90;;;;;;5074435;28;20527;-86
2024/01/13 04:10:35;;;;;;;4.50;4.10;;;22.40;52.00;;;;;;5074007;28;20449;-86
2024/01/13 04:13:02;;;;;;;4.17;3.80;;;22.50;52.00;;;;;;5073722;28;20492;-86
2024/01/13 04:15:28;;;;;;;4.97;3.80;;;22.40;51.90;;;;;;5074519;28;20444;-86
2024/01/13 04:17:55;;;;;;;4.40;4.00;;;22.40;52.00;;;;;;5073134;28;20447;-86
2024/01/13 04:20:22;;;;;;;4.10;3.70;;;22.40;52.00;;;;;;5073679;28;20557;-87
2024/01/13 04:22:50;;;;;;;3.73;3.43;;;22.40;52.00;;;;;;5073743;28;20455;-86
2024/01/13 04:25:17;;;;;;;4.40;3.93;;;22.40;51.90;;;;;;5073832;28;20444;-86
2024/01/13 04:27:44;;;;;;;5.00;4.50;;;22.40;52.00;;;;;;5073681;28;20876;-86
2024/01/13 04:30:11;;;;;;;4.17;3.77;;;22.40;52.00;;;;;;5074088;28;20535;-86
2024/01/13 04:32:39;;;;;;;5.03;4.37;;;22.40;52.00;;;;;;5073685;28;20488;-86
2024/01/13 04:35:07;;;;;;;4.20;3.80;;;22.40;52.00;;;;;;5073984;28;20436;-86
2024/01/13 04:37:33;;;;;;;4.90;4.50;;;22.40;51.90;;;;;;5073798;28;20436;-86
2024/01/13 04:40:02;;;;;;;4.40;4.00;;;22.40;51.80;;;;;;5073407;28;20543;-86
2024/01/13 04:42:28;;;;;;;4.70;4.20;;;22.40;51.90;;;;;;5073655;28;20779;-86
2024/01/13 04:44:55;;;;;;;6.17;4.07;;;22.30;51.80;;;;;;5073683;28;20965;-86
2024/01/13 04:47:22;;;;;;;4.30;3.90;;;22.40;51.90;;;;;;5073717;28;20445;-87
2024/01/13 04:49:49;;;;;;;4.77;4.20;;;22.40;51.90;;;;;;5073600;28;20821;-86
2024/01/13 04:52:15;;;;;;;4.30;3.90;;;22.40;51.80;;;;;;5073595;28;20480;-86
2024/01/13 04:54:42;;;;;;;4.00;3.70;;;22.50;52.00;;;;;;5073155;28;20446;-86
2024/01/13 04:57:11;;;;;;;4.10;3.70;;;22.40;51.80;;;;;;5073354;28;20440;-86
2024/01/13 04:59:38;;;;;;;3.80;3.50;;;22.50;51.80;;;;;;5073137;28;20440;-86
2024/01/13 05:02:05;;;;;;;4.90;4.00;;;22.40;51.70;;;;;;5073299;28;20798;-86
2024/01/13 05:04:32;;;;;;;3.90;3.60;;;22.40;51.70;;;;;;5073305;28;20444;-86
2024/01/13 05:06:58;;;;;;;4.10;3.70;;;22.50;51.70;;;;;;5073166;28;20512;-86
2024/01/13 05:09:25;;;;;;;4.43;3.77;;;22.50;51.80;;;;;;5072962;28;20515;-86
2024/01/13 05:11:52;;;;;;;4.40;3.97;;;22.40;51.70;;;;;;5073080;28;20918;-85
2024/01/13 05:14:20;;;;;;;4.50;3.77;;;22.50;51.80;;;;;;5072916;28;20442;-86
2024/01/13 05:16:47;;;;;;;5.47;4.33;;;22.50;51.70;;;;;;5073351;28;20441;-86
2024/01/13 05:19:14;;;;;;;4.03;3.67;;;22.60;51.80;;;;;;5072552;28;20468;-86
2024/01/13 05:21:40;;;;;;;3.93;3.63;;;22.50;51.80;;;;;;5073233;28;20543;-86
2024/01/13 05:24:07;;;;;;;4.10;3.77;;;22.50;51.70;;;;;;5072864;28;20467;-86
2024/01/13 05:26:34;;;;;;;3.70;3.40;;;22.50;51.60;;;;;;5075112;28;20444;-86
2024/01/13 05:29:01;;;;;;;3.93;3.63;;;22.50;51.60;;;;;;5077338;28;20443;-86
2024/01/13 05:31:29;;;;;;;3.57;3.27;;;22.50;51.70;;;;;;5076740;28;20436;-86
2024/01/13 05:33:56;;;;;;;3.67;3.03;;;22.50;51.70;;;;;;5077617;28;20505;-86
2024/01/13 05:36:23;;;;;;;4.30;3.30;;;22.50;51.70;;;;;;5076253;28;20455;-86
2024/01/13 05:38:49;;;;;;;4.90;4.00;;;22.50;52.20;;;;;;5076401;28;20988;-85
2024/01/13 05:41:16;;;;;;;3.77;3.47;;;22.50;51.60;;;;;;5077272;28;20492;-86
2024/01/13 05:43:43;;;;;;;4.17;3.30;;;22.60;51.60;;;;;;5076277;28;20448;-86
2024/01/13 05:46:12;;;;;;;3.40;3.10;;;22.50;51.50;;;;;;5076272;28;20451;-87
2024/01/13 05:48:40;;;;;;;3.37;3.07;;;22.50;51.60;;;;;;5077021;28;20503;-86
2024/01/13 05:51:08;;;;;;;4.83;3.70;;;22.60;51.70;;;;;;5076658;28;21120;-86
2024/01/13 05:53:37;;;;;;;3.63;3.33;;;22.60;51.70;;;;;;5075639;28;20520;-86
2024/01/13 05:56:04;;;;;;;4.03;3.63;;;22.60;51.70;;;;;;5076250;28;20445;-86
2024/01/13 05:58:31;;;;;;;3.00;2.63;;;22.50;51.60;;;;;;5076297;28;20520;-86
2024/01/13 06:00:58;;;;;;;4.30;3.70;;;22.50;51.60;;;;;;5076344;28;20436;-85
2024/01/13 06:03:25;;;;;;;3.77;3.47;;;22.50;51.60;;;;;;5075815;28;20535;-85
2024/01/13 06:05:53;;;;;;;2.90;2.70;;;22.50;51.60;;;;;;5075850;28;20436;-86
2024/01/13 06:08:20;;;;;;;3.37;3.07;;;22.50;51.70;;;;;;5076127;28;20927;-86
2024/01/13 06:10:47;;;;;;;3.87;3.57;;;22.50;51.70;;;;;;5075614;28;20531;-86
2024/01/13 06:13:14;;;;;;;3.93;3.63;;;22.50;51.60;;;;;;5075906;28;20511;-86
2024/01/13 06:15:41;;;;;;;4.20;3.53;;;22.60;51.80;;;;;;5076061;28;20474;-90
2024/01/13 06:18:08;;;;;;;3.47;3.17;;;22.50;51.60;;;;;;5075745;28;20440;-86
2024/01/13 06:20:35;;;;;;;3.83;3.37;;;22.50;51.60;;;;;;5076311;28;20475;-86
2024/01/13 06:23:03;;;;;;;3.90;3.60;;;22.50;51.60;;;;;;5076458;28;20803;-86
2024/01/13 06:25:32;;;;;;;3.40;3.13;;;22.50;51.70;;;;;;5094173;28;21025;-86
2024/01/13 06:27:58;;;;;;;4.33;3.93;;;22.50;51.60;;;;;;5094085;28;20502;-86
2024/01/13 06:30:25;;;;;;;3.20;3.00;;;22.50;51.60;;;;;;5079075;28;20542;-87
2024/01/13 06:32:52;;;;;;;4.07;3.77;;;22.50;51.60;;;;;;5075337;28;20491;-86
2024/01/13 06:35:19;;;;;;;3.30;3.00;;;22.60;51.60;;;;;;5075614;28;20441;-85
2024/01/13 06:37:46;;;;;;;4.00;3.33;;;22.60;51.60;;;;;;5075151;28;20441;-86
2024/01/13 06:40:15;;;;;;;2.83;2.63;;;22.60;51.50;;;;;;5075103;28;20444;-87
2024/01/13 06:42:42;;;;;;;4.03;3.70;;;22.50;51.50;;;;;;5075755;28;20965;-86
2024/01/13 06:45:09;;;;;;;3.07;2.77;;;22.50;51.60;;;;;;5075999;28;20448;-88
2024/01/13 06:47:36;;;;;;;3.70;3.40;;;22.50;52.10;;;;;;5074980;28;20446;-86
2024/01/13 06:50:04;;;;;;;3.30;2.63;;;22.50;51.70;;;;;;5074856;28;20456;-86
2024/01/13 06:52:30;;;;;;;3.57;3.27;;;22.50;51.60;;;;;;5074685;28;20479;-86
2024/01/13 06:54:57;;;;;;;3.03;2.83;;;22.50;51.60;;;;;;5075448;28;21006;-86
2024/01/13 06:57:25;;;;;;;2.90;2.70;;;22.50;51.60;;;;;;5076020;28;20539;-86
2024/01/13 06:59:52;;;;;;;3.40;3.10;;;22.50;51.60;;;;;;5075692;28;20521;-92
2024/01/13 07:02:19;;;;;;;3.07;2.80;;;22.50;51.50;;;;;;5079268;28;20440;-85
2024/01/13 07:04:50;;;;;;;2.70;2.50;;;22.60;51.60;;;;;;5078427;28;20458;-86
2024/01/13 07:07:16;;;;;;;3.00;2.80;;;22.60;51.50;;;;;;5084980;28;20442;-86
2024/01/13 07:09:43;;;;;;;3.30;3.00;;;22.60;51.60;;;;;;5095749;28;20784;-85
2024/01/13 07:12:10;;;;;;;3.13;2.83;;;22.60;51.50;;;;;;5098196;28;20566;-86
2024/01/13 07:14:39;;;;;;;2.43;2.23;;;22.50;51.50;;;;;;5095133;28;20446;-86
2024/01/13 07:17:05;;;;;;;3.07;2.80;;;22.60;51.60;;;;;;5095013;28;20449;-86
2024/01/13 07:19:32;;;;;;;2.73;2.53;;;22.60;51.50;;;;;;5094565;28;20479;-86
2024/01/13 07:21:59;;;;;;;2.67;2.47;;;22.60;52.00;;;;;;5094969;28;20436;-86
2024/01/13 07:24:26;;;;;;;2.93;2.73;;;22.60;51.50;;;;;;5095038;28;20446;-86
2024/01/13 07:26:52;;;;;;;2.63;2.43;;;22.60;51.50;;;;;;5094684;28;20536;-86
2024/01/13 07:29:21;;;;;;;2.90;2.37;;;22.60;51.40;;;;;;5095548;28;20444;-85
2024/01/13 07:31:49;;;;;;;2.77;2.57;;;22.60;51.40;;;;;;5095144;28;20443;-85
2024/01/13 07:34:16;;;;;;;2.83;2.63;;;22.60;51.50;;;;;;5094953;28;20501;-85
2024/01/13 07:36:43;;;;;;;2.80;2.60;;;22.60;51.40;;;;;;5094420;28;20435;-96
2024/01/13 07:39:09;;;;;;;3.57;2.97;;;22.60;51.50;;;;;;5094390;28;20493;-84
2024/01/13 07:41:36;;;;;;;2.70;2.50;;;22.50;51.40;;;;;;5071704;22;20477;-96
2024/01/13 07:44:03;;;;;;;3.20;2.90;;;22.50;51.50;;;;;;5014319;28;20457;-93
2024/01/13 07:46:30;;;;;;;2.70;2.40;;;22.50;51.50;;;;;;5015668;28;20446;-92
2024/01/13 07:48:58;;;;;;;2.57;2.37;;;22.60;51.90;;;;;;5021146;28;20582;-86
2024/01/13 07:51:25;;;;;;;3.10;2.50;;;22.60;51.20;;;;;;5015106;28;20530;-92
2024/01/13 07:53:52;;;;;;;2.70;2.50;;;22.60;51.40;;;;;;5015843;28;21028;-87
2024/01/13 07:56:19;;;;;;;2.50;2.30;;;22.60;51.50;;;;;;5015462;28;20465;-86
2024/01/13 07:58:51;;;;;;;3.37;3.07;;;22.60;51.50;;;;;;5016694;28;20446;-86
2024/01/13 08:01:18;;;;;;;2.60;2.40;;;22.60;51.50;;;;;;5023386;28;21009;-86
2024/01/13 08:03:45;;;;;;;2.93;2.73;;;22.50;51.50;;;;;;5015486;28;20869;-86
2024/01/13 08:06:13;;;;;;;2.50;2.30;;;22.50;51.40;;;;;;5014534;28;20930;-86
2024/01/13 08:08:40;;;;;;;2.73;2.53;;;22.50;51.50;;;;;;5014415;28;20489;-85
2024/01/13 08:11:07;;;;;;;3.50;3.10;;;22.50;51.10;;;;;;5013840;28;20470;-90
2024/01/13 08:13:34;;;;;;;3.20;2.90;;;22.50;50.10;;;;;;5014705;28;20486;-87
2024/01/13 08:16:00;;;;;;;6.43;2.57;;;22.40;50.30;;;;;;5015287;28;20450;-85
2024/01/13 08:18:27;;;;;;;3.25;2.17;;;22.40;51.00;;;;;;5012851;28;20449;-82
2024/01/13 08:20:54;;;;;;;2.47;2.27;;;22.50;50.80;;;;;;5013238;28;20196;-84
2024/01/13 08:23:22;;;;;;;2.63;1.90;;;22.50;51.00;;;;;;5013357;28;20449;-82
2024/01/13 08:25:49;;;;;;;3.63;2.90;;;22.60;51.30;;;;;;5013122;28;20459;-82
2024/01/13 08:28:16;;;;;;;3.53;2.40;;;22.70;51.30;;;;;;5013150;28;20447;-83
2024/01/13 08:30:42;;;;;;;2.53;2.00;;;22.60;51.20;;;;;;5012908;28;20969;-83
2024/01/13 08:33:09;;;;;;;3.70;2.43;;;22.60;51.20;;;;;;5012930;28;20497;-85
2024/01/13 08:35:36;;;;;;;4.33;2.13;;;22.60;51.20;;;;;;5013288;28;20755;-83
2024/01/13 08:38:03;;;;;;;2.60;2.40;;;22.70;51.40;;;;;;5012865;28;20439;-89
2024/01/13 08:40:31;;;;;;;2.97;2.30;;;22.70;51.30;;;;;;5014998;28;20487;-83
2024/01/13 08:43:01;;;;;;;2.40;2.20;;;22.70;51.40;;;;;;5012729;28;20822;-84
2024/01/13 08:45:29;;;;;;;2.80;2.60;;;22.60;51.00;;;;;;5012117;28;20435;-84
2024/01/13 08:47:57;;;;;;;4.80;2.50;;;22.70;51.70;;;;;;5012721;28;21009;-84
2024/01/13 08:50:23;;;;;;;10.57;2.27;;;22.70;51.30;;;;;;5012981;28;20446;-83
2024/01/13 08:52:54;;;;;;;2.50;2.30;;;22.70;51.30;;;;;;5013060;28;20821;-83
2024/01/13 08:55:21;;;;;;;2.60;2.40;;;22.70;51.30;;;;;;5012854;28;20450;-83
2024/01/13 08:57:49;;;;;;;2.27;2.07;;;22.70;51.40;;;;;;5012800;28;20541;-83
2024/01/13 09:00:17;;;;;;;5.03;2.40;;;22.70;51.40;;;;;;5013164;28;20457;-82
2024/01/13 09:02:44;;;;;;;2.43;2.17;;;22.70;51.40;;;;;;5016863;28;20815;-83
2024/01/13 09:05:11;;;;;;;4.43;2.23;;;22.70;51.40;;;;;;5016602;28;20450;-83
2024/01/13 09:07:38;;;;;;;3.30;2.30;;;22.70;51.40;;;;;;5016738;28;20945;-81
2024/01/13 09:10:06;;;;;;;2.47;2.27;;;22.70;51.40;;;;;;5016422;28;20439;-82
2024/01/13 09:12:33;;;;;;;2.80;2.20;;;22.70;51.30;;;;;;5016366;28;20443;-82
2024/01/13 09:15:01;;;;;;;5.03;2.70;;;22.70;51.40;;;;;;5015456;28;20446;-85
2024/01/13 09:17:28;;;;;;;3.10;2.10;;;22.70;51.40;;;;;;5015629;28;20435;-82
2024/01/13 09:19:55;;;;;;;2.77;2.50;;;22.70;51.40;;;;;;5015912;28;20462;-81
2024/01/13 09:22:22;;;;;;;2.83;2.30;;;22.70;51.40;;;;;;5016148;28;20430;-81
2024/01/13 09:24:48;;;;;;;2.17;1.97;;;22.80;51.50;;;;;;5016221;28;20443;-81
2024/01/13 09:27:17;;;;;;;2.13;1.93;;;22.80;51.50;;;;;;5015996;28;20470;-81
2024/01/13 09:29:45;;;;;;;6.60;2.80;;;22.80;51.50;;;;;;5016007;28;20435;-81
2024/01/13 09:32:14;;;;;;;3.50;2.77;;;22.80;51.50;;;;;;5016916;28;20793;-79
2024/01/13 09:34:40;;;;;;;3.15;2.50;;;22.80;51.50;;;;;;5024164;28;20446;-83
2024/01/13 09:37:07;;;;;;;2.10;1.93;;;22.80;51.70;;;;;;5024542;28;20292;-82
2024/01/13 09:39:34;;;;;;;3.10;2.63;;;22.90;51.60;;;;;;5017373;28;20800;-85
2024/01/13 09:42:02;;;;;;;2.37;2.17;;;22.80;51.50;;;;;;5016888;28;20477;-82
2024/01/13 09:44:32;;;;;;;4.03;2.20;;;22.80;51.60;;;;;;5016196;28;20501;-81
2024/01/13 09:47:00;;;;;;;3.30;2.40;;;22.90;51.70;;;;;;5016812;28;20439;-80
2024/01/13 09:49:30;;;;;;;2.83;2.63;;;22.80;51.60;;;;;;5027758;28;20541;-82
2024/01/13 09:51:58;;;;;;;2.37;2.17;;;22.70;50.50;;;;;;5036603;28;20446;-84
2024/01/13 09:54:26;;;;;;;2.93;2.50;;;22.70;51.20;;;;;;5036350;28;20486;-93
2024/01/13 09:56:55;;;;;;;3.20;2.17;;;22.70;50.90;;;;;;5037086;28;20541;-91
2024/01/13 09:59:41;;;;;;;4.77;2.40;;;22.70;51.20;;;;;;5037083;28;20453;-90
2024/01/13 10:02:13;;;;;;;2.70;2.50;;;22.80;51.60;;;;;;5035008;28;20450;-91
2024/01/13 10:08:04;;;;;;;2.70;2.47;;;22.70;50.40;;;;;;5040823;28;20405;-86
2024/01/13 10:10:33;;;;;;;2.77;2.57;;;22.40;50.80;;;;;;5034176;28;20438;-84
2024/01/13 10:13:00;;;;;;;2.47;2.27;;;22.40;51.10;;;;;;5035336;28;20944;-90
2024/01/13 10:15:27;;;;;;;2.73;2.53;;;22.40;50.90;;;;;;5036947;28;20477;-90
2024/01/13 10:17:54;;;;;;;4.30;2.90;;;22.40;51.20;;;;;;5038147;28;20802;-95
2024/01/13 10:20:23;;;;;;;2.83;2.50;;;22.20;51.20;;;;;;5040346;28;20446;-93
2024/01/13 10:22:49;;;;;;;3.40;2.77;;;22.20;51.60;;;;;;5040271;28;20439;-88
2024/01/13 10:25:18;;;;;;;3.63;2.53;;;;;;;;;;5031700;28;20882;-92
2024/01/13 10:27:46;;;;;;;2.57;2.30;;;;;;;;;;4996120;28;20468;-86
2024/01/13 10:30:14;;;;;;;3.63;2.80;;;;;;;;;;5006120;28;20486;-87
2024/01/13 10:32:42;;;;;;;2.83;2.40;;;;;;;;;;5019441;28;20445;-86
2024/01/13 10:35:15;;;;;;;4.57;2.30;;;;;;;;;;5020335;28;20497;-93
2024/01/13 10:37:42;;;;;;;6.90;3.03;;;;;;;;;;5015404;28;20451;-83
2024/01/13 10:40:10;;;;;;;7.10;2.30;;;;;;;;;;5015463;28;20805;-91
2024/01/13 10:42:40;;;;;;;7.77;2.97;;;;;;;;;;5014180;28;20505;-81
2024/01/13 10:45:09;;;;;;;4.20;2.83;;;22.90;74.20;;;;;;5013057;28;20517;-82
2024/01/13 10:47:40;;;;;;;6.93;3.10;;;;;;;;;;5014901;28;20450;-91
2024/01/13 10:50:10;;;;;;;8.10;2.93;;;23.00;72.10;;;;;;5014556;28;20459;-82
2024/01/13 10:52:50;;;;;;;6.33;2.90;;;23.00;70.90;;;;;;5014837;28;20448;-82
2024/01/13 10:55:19;;;;;;;7.63;2.80;;;23.00;63.10;;;;;;5014805;28;20493;-89
2024/01/13 10:57:48;;;;;;;5.60;2.83;;;23.00;65.90;;;;;;5015105;28;20435;-84
2024/01/13 11:00:17;;;;;;;10.33;2.67;;;23.00;71.50;;;;;;5015262;28;20443;-89
2024/01/13 11:02:44;;;;;;;4.57;2.40;;;22.90;62.60;;;;;;5014926;28;20447;-89
2024/01/13 11:05:13;;;;;;;3.60;2.40;;;22.90;57.10;;;;;;5014233;28;20459;-81
2024/01/13 11:07:40;;;;;;;6.03;2.60;;;22.90;52.70;;;;;;5013552;28;20446;-82
2024/01/13 11:10:14;;;;;;;7.00;2.70;;;23.00;50.60;;;;;;5013424;28;20931;-82
2024/01/13 11:12:49;;;;;;;7.20;2.93;;;23.10;50.30;;;;;;5013462;28;20501;-81
2024/01/13 11:15:23;;;;;;;4.13;2.40;;;23.10;50.10;;;;;;5013621;28;20969;-82
2024/01/13 11:17:51;;;;;;;7.43;2.67;;;23.10;50.10;;;;;;5014314;28;20447;-81
2024/01/13 11:20:19;;;;;;;5.33;2.77;;;23.10;50.30;;;;;;5014867;28;20439;-82
2024/01/13 11:22:58;;;;;;;5.47;2.47;;;23.10;50.50;;;;;;5017661;28;20439;-88
2024/01/13 11:25:25;;;;;;;3.20;2.50;;;23.10;50.60;;;;;;5019485;28;20922;-84
2024/01/13 11:27:59;;;;;;;18.50;5.30;;;23.10;50.30;;;;;;5015943;28;20808;-87
2024/01/13 11:30:37;;;;;;;7.80;3.33;;;23.10;50.00;;;;;;5018037;28;20447;-86
2024/01/13 11:33:06;;;;;;;2.80;2.00;;;23.10;50.10;;;;;;5016313;28;20922;-86
2024/01/13 11:35:33;;;;;;;3.23;2.33;;;23.00;51.00;;;;;;5015253;28;20848;-86
2024/01/13 11:38:02;;;;;;;4.77;2.30;;;23.00;51.20;;;;;;5015882;28;20450;-86
2024/01/13 11:40:32;;;;;;;6.33;2.10;;;22.90;51.20;;;;;;5016959;28;20447;-85
2024/01/13 11:43:00;;;;;;;7.00;2.43;;;22.90;51.20;;;;;;5015894;28;20470;-87
2024/01/13 11:45:42;;;;;;;4.83;2.33;;;22.90;51.30;;;;;;5016642;28;20842;-84
2024/01/13 11:48:28;;;;;;;3.60;2.40;;;;;;;;;;5016984;28;20525;-84
2024/01/13 11:50:54;;;;;;;4.63;2.50;;;23.00;62.60;;;;;;5014808;28;20538;-84
2024/01/13 11:53:35;;;;;;;6.73;2.73;;;23.00;63.50;;;;;;5014696;28;20450;-79
2024/01/13 11:59:23;;;;;;;4.97;2.70;;;23.00;64.00;;;;;;5014160;28;20419;-79
2024/01/13 12:01:54;;;;;;;3.90;2.27;;;23.00;63.20;;;;;;5014128;28;20449;-79
2024/01/13 12:04:20;;;;;;;3.83;2.80;;;23.00;63.10;;;;;;5014123;28;20439;-79
2024/01/13 12:06:47;;;;;;;4.40;2.50;;;23.00;63.20;;;;;;5014930;28;20447;-83
2024/01/13 12:09:15;;;;;;;5.27;2.40;;;23.10;63.70;;;;;;5015715;28;20443;-85
2024/01/13 12:11:42;;;;;;;8.70;3.40;;;23.00;66.80;;;;;;5015632;28;20990;-84
2024/01/13 12:14:09;;;;;;;5.40;3.27;;;23.00;71.90;;;;;;5015580;28;20811;-83
2024/01/13 12:16:37;;;;;;;5.20;3.30;;;23.00;68.60;;;;;;5015314;28;20443;-84
2024/01/13 12:19:05;;;;;;;2.93;2.10;;;23.00;70.30;;;;;;5016816;28;20506;-84
2024/01/13 12:21:36;;;;;;;5.73;3.10;;;23.00;68.10;;;;;;5015964;28;20427;-79
2024/01/13 12:24:03;;;;;;;4.23;2.60;;;22.90;61.70;;;;;;5016371;28;20511;-85
2024/01/13 12:26:31;;;;;;;5.73;2.47;;;23.00;60.00;;;;;;5017105;28;20522;-85
2024/01/13 12:28:59;;;;;;;5.40;2.50;;;22.90;59.70;;;;;;5015493;28;20447;-85
2024/01/13 12:31:26;;;;;;;3.77;2.77;;;23.00;59.30;;;;;;5015222;28;20439;-84
2024/01/13 12:33:53;;;;;;;4.33;2.67;;;23.00;58.70;;;;;;5015078;28;20485;-85
2024/01/13 12:36:21;;;;;;;9.17;2.67;;;23.00;58.90;;;;;;5019880;28;20447;-85
2024/01/13 12:38:54;;;;;;;3.77;2.40;;;23.00;58.10;;;;;;5019338;28;20438;-83
2024/01/13 12:41:21;;;;;;;2.87;2.23;;;23.00;58.30;;;;;;5025445;28;20477;-82
2024/01/13 12:43:48;;;;;;;5.00;2.43;;;23.00;58.20;;;;;;5038162;28;20491;-83
2024/01/13 12:46:15;;;;;;;3.63;2.13;;;23.00;58.10;;;;;;5037827;28;20474;-86
2024/01/13 12:48:42;;;;;;;7.20;2.90;;;23.00;57.70;;;;;;5017752;28;20463;-85
2024/01/13 12:51:09;;;;;;;4.90;2.50;;;23.00;57.70;;;;;;5017493;28;20783;-85
2024/01/13 12:53:40;;;;;;;7.90;2.50;;;23.00;57.70;;;;;;5017382;28;20445;-82
2024/01/13 12:56:08;;;;;;;3.57;2.50;;;23.00;58.00;;;;;;5017390;28;20462;-80
2024/01/13 12:58:35;;;;;;;11.53;2.63;;;23.10;52.30;;;;;;5017273;28;20443;-80